METAR Data
IDs: Format: Raw Decoded Include TAF

Data at: 0624 UTC 23 Feb 2019

PAVA 230610Z AUTO 16024KT 9SM BKN009 OVC018 00/M01 A2991 RMK AO2 PK WND 15030/0606 FZRANO
PAVA 230556Z AUTO 16025G30KT 8SM OVC011 00/M01 A2991 RMK AO2 PK WND 16032/0501 SLP215 60000 T00001006 10006 20000 58004 FZRANO
PAVA 230531Z AUTO 16025KT 7SM BKN011 OVC018 01/M01 A2992 RMK AO2 PK WND 16032/0501 FZRANO
PAVA 230456Z AUTO 16023G31KT 8SM OVC028 00/M01 A2992 RMK AO2 PK WND 16034/0443 SLP217 T00001006 FZRANO
PAVA 230356Z AUTO 16025G32KT 6SM BR FEW028 OVC036 00/M01 A2992 RMK AO2 PK WND 16033/0340 SLP219 T00001006 FZRANO
PAVA 230305Z AUTO 16027G31KT 5SM BR OVC030 00/M01 A2992 RMK AO2 PK WND 16031/0304 FZRANO
PAVA 230256Z AUTO 16025G31KT 5SM BR OVC028 00/M01 A2992 RMK AO2 PK WND 16032/0242 SLP217 60000 T00001006 58001 FZRANO
PAVA 230205Z AUTO 16026G32KT 5SM BR BKN026 OVC034 01/00 A2992 RMK AO2 PK WND 16032/0203 FZRANO
PAVA 230156Z AUTO 16024KT 5SM BR SCT026 OVC034 01/00 A2992 RMK AO2 PK WND 16030/0136 RAE27 SLP218 P0000 T00060000 FZRANO
PAVA 230056Z AUTO 16023G29KT 6SM -RA BR OVC032 01/M01 A2992 RMK AO2 PK WND 16030/0043 RAB49 SLP218 P0000 T00061006 FZRANO
PAVA 222356Z AUTO 16025G30KT 6SM BR OVC034 01/00 A2992 RMK AO2 PK WND 17033/2341 SLP218 60000 T00060000 10006 20000 50002 FZRANO
PAVA 222256Z AUTO 17026G33KT 5SM BR OVC034 01/00 A2992 RMK AO2 PK WND 17033/2253 UPE37 SLP218 P0000 T00060000 FZRANO
PAVA 222156Z AUTO 16025KT 4SM UP BR FEW012 OVC034 01/00 A2991 RMK AO2 PK WND 17032/2149 SLP216 P0000 T00060000 FZRANO
PAVA 222138Z AUTO 17028KT 4SM BR SCT012 OVC032 00/00 A2992 RMK AO2 PK WND 17032/2138 UPE36 P0000 FZRANO
PAVA 222116Z AUTO 17027G32KT 4SM UP BR FEW005 BKN012 OVC032 00/00 A2991 RMK AO2 PK WND 17032/2113 P0000 FZRANO
PAVA 222107Z AUTO 17028G32KT 3SM UP BR BKN005 OVC012 00/00 A2991 RMK AO2 PK WND 17032/2107 CIG 004V008 P0000 FZRANO
PAVA 222056Z AUTO 17027G33KT 1 1/4SM UP BR OVC005 00/00 A2991 RMK AO2 PK WND 17033/2055 UPB53SNE53 CIG 003V010 SLP216 P0000 60000 T00000000 51004 FZRANO
PAVA 222049Z AUTO 17027G32KT 1 1/4SM -SN BR OVC005 00/00 A2991 RMK AO2 PK WND 17033/2002 CIG 003V009 P0000 FZRANO
PAVA 222042Z AUTO 17026G31KT 1SM -SN BR OVC005 00/00 A2992 RMK AO2 PK WND 17033/2002 P0000 FZRANO
PAVA 221956Z AUTO 17028G32KT 3/4SM -SN BR OVC005 00/00 A2991 RMK AO2 PK WND 17035/1926 SLP215 P0000 T00000000 FZRANO
PAVA 221937Z AUTO 17028KT 3/4SM -SN BR OVC005 00/00 A2991 RMK AO2 PK WND 17035/1926 P0000 FZRANO
PAVA 221856Z AUTO 17031G38KT 1/2SM SN FG OVC005 00/00 A2991 RMK AO2 PK WND 17038/1849 SLP214 P0000 T00000000 FZRANO
PAVA 221817Z AUTO 17030G35KT 1/2SM SN FG OVC005 00/M01 A2990 RMK AO2 PK WND 17035/1817 P0000 FZRANO
PAVA 221756Z AUTO 17030G35KT 3/4SM -SN BR OVC005 00/M01 A2990 RMK AO2 PK WND 17035/1751 SLP211 P0000 60000 T00001006 10000 21006 56006 FZRANO
PAVA 221656Z AUTO 17029G34KT 3/4SM -SN BR OVC005 M01/M01 A2991 RMK AO2 PK WND 17036/1619 SLP215 P0000 T10061006 FZRANO
PAVA 221620Z AUTO 17031G36KT 3/4SM -SN BR OVC005 00/M01 A2991 RMK AO2 PK WND 17036/1619 P0000 FZRANO
PAVA 221556Z AUTO 17027G34KT 1SM -SN BR OVC005 00/M01 A2991 RMK AO2 PK WND 17034/1550 SLP215 P0000 T00001006 FZRANO
PAVA 221456Z AUTO 17027KT 1SM -SN BR OVC005 00/M01 A2992 RMK AO2 PK WND 17033/1411 SLP219 P0000 60000 T00001006 58013 FZRANO
PAVA 221413Z AUTO 17026G33KT 1SM -SN BR OVC005 00/M01 A2993 RMK AO2 PK WND 17033/1411 P0000 FZRANO
PAVA 221356Z AUTO 17026G32KT 3/4SM -SN BR OVC005 00/M01 A2993 RMK AO2 PK WND 17032/1351 SLP223 P0000 T00001006 FZRANO
PAVA 221256Z AUTO 17025G31KT 1SM -SN BR OVC005 M01/M01 A2995 RMK AO2 PK WND 16031/1254 CIG 003V008 SLP229 P0000 T10061006 FZRANO
PAVA 221254Z AUTO 17025G31KT 1SM -SN BR OVC005 M01/M01 A2995 RMK AO2 PK WND 16031/1254 CIG 003V008 P0000 FZRANO
PAVA 221216Z AUTO 17025KT 1 3/4SM -SN BR BKN007 OVC041 M01/M01 A2996 RMK AO2 PK WND 17029/1215 CIG 004V011 P0000 FZRANO
PAVA 221156Z AUTO 17022KT 2 1/2SM -SN BR BKN007 OVC038 M01/M01 A2996 RMK AO2 PK WND 17028/1116 CIG 004V010 SLP232 P0000 60000 T10061006 11006 21017 56007 FZRANO
PAVA 221149Z AUTO 17022KT 2 1/2SM -SN BR BKN007 OVC036 M01/M01 A2996 RMK AO2 PK WND 17028/1116 CIG 005V011 P0000 FZRANO
PAVA 221056Z AUTO 16022KT 2 1/2SM -SN BR FEW004 SCT032 OVC045 M01/M01 A2996 RMK AO2 PK WND 16026/1056 SLP234 P0000 T10061011 FZRANO
PAVA 221047Z AUTO 17022KT 2 1/2SM -SN BR SCT004 BKN035 OVC050 M01/M01 A2997 RMK AO2 PK WND 17026/1046 P0000 FZRANO
PAVA 221016Z AUTO 16021KT 2SM -SN BR OVC004 M01/M01 A2997 RMK AO2 P0000 FZRANO
PAVA 220956Z AUTO 16022KT 1 1/2SM -SN BR OVC004 M01/M01 A2997 RMK AO2 PK WND 17026/0938 SLP237 P0000 T10061011 FZRANO
PAVA 220937Z AUTO 16022KT 1 3/4SM -SN BR OVC004 M01/M01 A2998 RMK AO2 PK WND 17026/0934 P0000 FZRANO
PAVA 220856Z AUTO 16019KT 2 1/2SM -SN BR OVC004 M01/M01 A2998 RMK AO2 UPB18E53SNE18B53 SLP239 P0000 60000 T10111011 56006 FZRANO
PAVA 220853Z AUTO 16020KT 2 1/2SM -SN BR OVC004 M01/M01 A2998 RMK AO2 UPB18E53SNE18B53 P0000 FZRANO
PAVA 220844Z AUTO 16021KT 3SM UP BR OVC004 M01/M01 A2998 RMK AO2 UPB18SNE18 P0000 FZRANO
PAVA 220825Z AUTO 16020KT 3SM UP BR BKN006 OVC022 M01/M01 A2999 RMK AO2 UPB18SNE18 P0000 FZRANO
PAVA 220817Z AUTO 16019KT 2 1/2SM -SN BR BKN006 OVC026 M01/M01 A2999 RMK AO2 CIG 004V008 P0000 FZRANO
PAVA 220806Z AUTO 16018KT 2SM -SN BR BKN004 BKN012 OVC027 M01/M01 A2999 RMK AO2 P0000 FZRANO
PAVA 220756Z AUTO 16019KT 3SM -SN BR OVC004 M01/M01 A2999 RMK AO2 UPE33SNB33 SLP244 P0000 T10111011 410111039 FZRANO
PAVA 220740Z AUTO 16017KT 2SM -SN BR OVC004 M01/M02 A2999 RMK AO2 UPE33SNB33 P0000 FZRANO
PAVA 220656Z AUTO 15017KT 6SM UP BR OVC004 M02/M02 A3000 RMK AO2 UPB00E11B41SNE00B11E41 SLP245 P0000 T10171017 FZRANO
PAVA 220654Z AUTO 16017KT 5SM UP BR BKN004 OVC007 M02/M02 A3000 RMK AO2 UPB00E11B41SNE00B11E41 P0000 FZRANO
PAVA 220630Z AUTO 16017KT 3SM -SN BR BKN007 OVC010 M02/M02 A3000 RMK AO2 UPB00E11SNE00B11 CIG 003V008 P0000 FZRANO
PAVA 220627Z AUTO 16016KT 2 1/2SM -SN BR BKN005 OVC010 M02/M02 A3000 RMK AO2 UPB00E11SNE00B11 CIG 003V008 P0000 FZRANO
PAVA 220615Z AUTO 16017KT 1 3/4SM -SN BR SCT005 BKN012 OVC037 M02/M02 A3001 RMK AO2 UPB00E11SNE00B11 P0000 FZRANO
PAVA 220608Z AUTO 16017KT 2 1/2SM UP BR SCT005 BKN023 OVC050 M02/M02 A3001 RMK AO2 UPB00SNE00 P0000 FZRANO
PAVA 220600Z AUTO 16016KT 2SM UP BR BKN026 BKN037 OVC050 M02/M02 A3001 RMK AO2 UPB00SNE00 P0000 FZRANO
PAVA 220556Z AUTO 16016KT 3SM -SN BR SCT028 BKN037 OVC080 M02/M02 A3001 RMK AO2 UPE03B27E33SNB03E27B50 SLP249 P0000 60000 T10171022 11017 21039 58009 FZRANO
PAVA 220542Z AUTO 15015KT 8SM FEW006 BKN050 OVC075 M02/M02 A3001 RMK AO2 UPE03B27E33SNB03E27 P0000 FZRANO
PAVA 220533Z AUTO 15015KT 8SM SCT012 BKN070 OVC085 M02/M02 A3001 RMK AO2 UPE03B27E33SNB03E27 P0000 FZRANO
PAVA 220516Z AUTO 15012KT 3SM -SN BR FEW007 BKN016 OVC041 M02/M02 A3001 RMK AO2 UPE03SNB03 P0000 FZRANO
PAVA 220508Z AUTO 15015KT 1 3/4SM -SN BR SCT009 BKN016 OVC041 M02/M02 A3002 RMK AO2 UPE03SNB03 P0000 FZRANO
PAVA 220456Z AUTO 16015KT 4SM UP BR SCT009 BKN015 OVC050 M02/M02 A3002 RMK AO2 UPB40SNE40 SLP254 P0000 T10221022 FZRANO
PAVA 220440Z AUTO 15014KT 3SM UP BR FEW009 BKN029 OVC050 M02/M02 A3002 RMK AO2 UPB40SNE40 P0000 FZRANO
PAVA 220428Z AUTO 16014KT 3SM -SN BR FEW015 BKN038 OVC055 M02/M03 A3003 RMK AO2 P0000 FZRANO
PAVA 220420Z AUTO 15014KT 2SM -SN BR SCT015 BKN025 OVC035 M02/M03 A3003 RMK AO2 VIS 1 1/4V4 P0000 FZRANO
PAVA 220356Z AUTO 15013KT 1 3/4SM -SN BR SCT021 BKN028 OVC037 M02/M03 A3004 RMK AO2 SLP259 P0000 T10221028 FZRANO
PAVA 220353Z AUTO 16013KT 1 3/4SM -SN BR FEW016 BKN028 OVC037 M02/M03 A3004 RMK AO2 P0000 FZRANO
PAVA 220336Z AUTO 16012KT 2SM -SN BR FEW021 SCT027 OVC035 M02/M03 A3004 RMK AO2 P0000 FZRANO
PAVA 220332Z AUTO 16013KT 1 3/4SM -SN BR FEW016 BKN029 OVC035 M02/M03 A3004 RMK AO2 P0000 FZRANO
PAVA 220305Z AUTO 17016KT 1 3/4SM -SN BR BKN033 BKN040 OVC048 M03/M03 A3005 RMK AO2 P0000 FZRANO
PAVA 220256Z AUTO 17015KT 5SM -SN BR BKN036 BKN050 OVC060 M03/M03 A3005 RMK AO2 SNB50 SLP263 P0000 60000 T10281033 50002 FZRANO
PAVA 220156Z AUTO 17010KT 9SM OVC041 M03/M04 A3005 RMK AO2 SLP264 T10331039 FZRANO
PAVA 220056Z AUTO 18012KT 9SM SCT043 M03/M04 A3005 RMK AO2 SLP264 T10331044 FZRANO
PAVA 212356Z AUTO 20012KT 10SM FEW043 M02/M04 A3004 RMK AO2 SLP262 60000 T10171039 11017 21033 51016 FZRANO
PAVA 212256Z AUTO 22014KT 9SM CLR M03/M05 A3004 RMK AO2 SLP259 T10331050 FZRANO
PAVA 212156Z AUTO 23015KT 10SM SCT043 M02/M05 A3002 RMK AO2 SLP252 T10221050 FZRANO
PAVA 212056Z AUTO 24021KT 10SM SCT031 OVC043 M02/M05 A3000 RMK AO2 SLP246 60000 T10171050 51020 FZRANO
PAVA 211956Z AUTO 23019KT 8SM FEW018 SCT035 BKN041 M03/M04 A2998 RMK AO2 PK WND 25027/1903 SLP241 T10281044 FZRANO
PAVA 211953Z AUTO 23020KT 8SM FEW018 SCT027 BKN043 M03/M04 A2998 RMK AO2 PK WND 25027/1903 FZRANO
PAVA 211856Z AUTO 25020KT 7SM SCT018 BKN023 OVC029 M02/M04 A2994 RMK AO2 PK WND 24030/1828 SNB04E34 SLP226 P0000 T10221044 FZRANO